Time;durP1;ratioP1;P1;durP2;ratioP2;P2;SDS_P1;SDS_P2;PMS_P1;PMS_P2;Temp;Humidity;BMP_temperature;BMP_pressure;BME280_temperature;BME280_humidity;BME280_pressure;Samples;Min_cycle;Max_cycle;Signal;HPM_P1;HPM_P2
2023/07/06 00:02:00;;;;;;;;;;;15.10;82.40;;;;;;5071525;28;19913;-82
2023/07/06 00:04:25;;;;;;;;;;;15.10;82.20;;;;;;5082396;28;19916;-83
2023/07/06 00:06:55;;;;;;;;;;;15.10;81.90;;;;;;5057238;22;21006;-91
2023/07/06 00:09:21;;;;;;;;;;;15.10;81.70;;;;;;5000151;28;19922;-91
2023/07/06 00:11:47;;;;;;;;;;;15.10;81.90;;;;;;5001568;28;19917;-91
2023/07/06 00:14:14;;;;;;;;;;;15.10;82.20;;;;;;4993100;28;19914;-92
2023/07/06 00:16:41;;;;;;;;;;;15.10;81.80;;;;;;4984411;28;19914;-91
2023/07/06 00:19:08;;;;;;;;;;;15.10;81.70;;;;;;4980434;28;20402;-91
2023/07/06 00:21:34;;;;;;;;;;;15.00;81.90;;;;;;4990476;28;19917;-91
2023/07/06 00:24:00;;;;;;;;;;;15.00;82.10;;;;;;4974644;28;19914;-91
2023/07/06 00:26:25;;;;;;;;;;;15.00;82.20;;;;;;4977888;28;19914;-91
2023/07/06 00:28:51;;;;;;;;;;;15.10;81.90;;;;;;4973967;28;19944;-91
2023/07/06 00:31:32;;;;;;;;;;;15.00;81.80;;;;;;4977911;28;19914;-92
2023/07/06 00:34:04;;;;;;;;;;;15.00;81.30;;;;;;4984085;28;19910;-91
2023/07/06 00:36:30;;;;;;;;;;;14.90;81.60;;;;;;4973424;28;19911;-91
2023/07/06 00:38:56;;;;;;;;;;;14.80;81.40;;;;;;4979076;28;19943;-91
2023/07/06 00:41:21;;;;;;;;;;;14.80;81.60;;;;;;4977628;28;20012;-92
2023/07/06 00:43:49;;;;;;;;;;;14.80;81.60;;;;;;4978606;28;19914;-91
2023/07/06 00:46:15;;;;;;;;;;;14.80;81.60;;;;;;4988122;28;20211;-91
2023/07/06 00:48:44;;;;;;;;;;;14.80;81.60;;;;;;4987423;28;19925;-92
2023/07/06 00:51:13;;;;;;;;;;;14.70;81.90;;;;;;4981521;28;19910;-91
2023/07/06 00:53:41;;;;;;;;;;;14.80;81.70;;;;;;4980644;28;19914;-91
2023/07/06 00:56:08;;;;;;;;;;;14.80;81.60;;;;;;4977512;28;20299;-91
2023/07/06 00:58:36;;;;;;;;;;;14.80;82.00;;;;;;4974087;28;19943;-91
2023/07/06 01:01:03;;;;;;;;;;;14.80;81.90;;;;;;4973047;28;20410;-91
2023/07/06 01:03:30;;;;;;;;;;;14.70;81.60;;;;;;4970973;28;19945;-91
2023/07/06 01:05:58;;;;;;;;;;;14.80;81.60;;;;;;4986187;28;19945;-90
2023/07/06 01:08:25;;;;;;;;;;;14.80;81.50;;;;;;4972267;28;19922;-91
2023/07/06 01:10:52;;;;;;;;;;;14.70;81.90;;;;;;4978538;28;20394;-92
2023/07/06 01:13:18;;;;;;;;;;;14.60;82.00;;;;;;4976245;28;19925;-90
2023/07/06 01:15:49;;;;;;;;;;;14.60;82.00;;;;;;4974554;28;20273;-91
2023/07/06 01:18:22;;;;;;;;;;;14.70;82.20;;;;;;4970476;28;19963;-92
2023/07/06 01:20:56;;;;;;;;;;;14.70;81.80;;;;;;4970379;28;19911;-91
2023/07/06 01:23:50;;;;;;;;;;;14.80;81.60;;;;;;4977888;28;20465;-92
2023/07/06 01:26:25;;;;;;;;;;;14.80;81.20;;;;;;4976370;28;19917;-91
2023/07/06 01:28:51;;;;;;;;;;;14.70;81.60;;;;;;4978171;28;19961;-91
2023/07/06 01:31:19;;;;;;;;;;;14.60;81.70;;;;;;4989120;28;20328;-91
2023/07/06 01:33:55;;;;;;;;;;;14.60;81.80;;;;;;4973005;28;19914;-92
2023/07/06 01:36:47;;;;;;;;;;;14.60;82.20;;;;;;4964372;28;19925;-91
2023/07/06 01:39:17;;;;;;;;;;;14.50;82.10;;;;;;4969981;28;19921;-91
2023/07/06 01:41:43;;;;;;;;;;;14.50;82.20;;;;;;4980023;28;19914;-91
2023/07/06 01:44:11;;;;;;;;;;;14.50;82.10;;;;;;4980449;28;19917;-91
2023/07/06 01:46:38;;;;;;;;;;;14.50;82.30;;;;;;4988537;28;19914;-91
2023/07/06 01:49:05;;;;;;;;;;;14.50;81.90;;;;;;4988945;28;19972;-91
2023/07/06 01:51:39;;;;;;;;;;;14.40;82.10;;;;;;4980321;28;19915;-91
2023/07/06 01:54:08;;;;;;;;;;;14.40;82.30;;;;;;4977490;28;19920;-92
2023/07/06 01:56:55;;;;;;;;;;;14.40;82.20;;;;;;4968388;28;19914;-91
2023/07/06 01:59:24;;;;;;;;;;;14.40;82.30;;;;;;4977619;28;19914;-91
2023/07/06 02:02:00;;;;;;;;;;;14.20;82.50;;;;;;4969003;28;19914;-91
2023/07/06 02:04:27;;;;;;;;;;;14.30;82.60;;;;;;4968346;28;19910;-92
2023/07/06 02:06:53;;;;;;;;;;;14.40;82.20;;;;;;4968938;28;19918;-91
2023/07/06 02:09:19;;;;;;;;;;;14.30;82.40;;;;;;4980132;28;19924;-91
2023/07/06 02:11:45;;;;;;;;;;;14.30;82.40;;;;;;4984549;28;20009;-91
2023/07/06 02:14:10;;;;;;;;;;;14.30;82.30;;;;;;4982371;28;19910;-91
2023/07/06 02:16:36;;;;;;;;;;;14.30;82.30;;;;;;4990432;28;19917;-91
2023/07/06 02:19:03;;;;;;;;;;;14.20;82.40;;;;;;4975807;28;19962;-90
2023/07/06 02:21:29;;;;;;;;;;;14.30;82.40;;;;;;4976929;28;20299;-91
2023/07/06 02:23:54;;;;;;;;;;;14.30;82.50;;;;;;4977055;28;19921;-91
2023/07/06 02:26:20;;;;;;;;;;;14.30;82.50;;;;;;4949259;28;19949;-91
2023/07/06 02:28:45;;;;;;;;;;;14.20;82.50;;;;;;4979255;28;19918;-91
2023/07/06 02:31:11;;;;;;;;;;;14.20;82.70;;;;;;4980238;28;20395;-91
2023/07/06 02:33:36;;;;;;;;;;;14.30;82.60;;;;;;4976363;28;20375;-91
2023/07/06 02:36:02;;;;;;;;;;;14.30;82.60;;;;;;4969543;28;19910;-91
2023/07/06 02:38:46;;;;;;;;;;;14.30;82.50;;;;;;4970710;28;19914;-91
2023/07/06 02:41:12;;;;;;;;;;;14.30;82.70;;;;;;4977260;28;20395;-91
2023/07/06 02:43:37;;;;;;;;;;;14.30;82.80;;;;;;4974157;28;19964;-91
2023/07/06 02:46:03;;;;;;;;;;;14.30;82.50;;;;;;4986407;28;19952;-91
2023/07/06 02:48:29;;;;;;;;;;;14.20;82.80;;;;;;4991117;28;19929;-91
2023/07/06 02:50:54;;;;;;;;;;;14.20;83.30;;;;;;4986936;28;19913;-91
2023/07/06 02:53:20;;;;;;;;;;;14.20;83.10;;;;;;4961073;28;19925;-91
2023/07/06 02:55:46;;;;;;;;;;;14.10;83.40;;;;;;4975886;28;20330;-91
2023/07/06 02:58:12;;;;;;;;;;;14.10;83.50;;;;;;4969788;28;19937;-91
2023/07/06 03:00:37;;;;;;;;;;;14.20;83.20;;;;;;4979976;28;20404;-90
2023/07/06 03:03:07;;;;;;;;;;;14.20;83.50;;;;;;4974724;28;20342;-91
2023/07/06 03:05:35;;;;;;;;;;;14.20;83.60;;;;;;4975378;28;19914;-91
2023/07/06 03:08:01;;;;;;;;;;;14.10;83.40;;;;;;4967112;28;19925;-91
2023/07/06 03:10:27;;;;;;;;;;;14.10;83.10;;;;;;4975590;28;19995;-91
2023/07/06 03:12:54;;;;;;;;;;;14.10;83.40;;;;;;4964793;28;20380;-91
2023/07/06 03:15:20;;;;;;;;;;;14.10;83.00;;;;;;4986202;28;20290;-91
2023/07/06 03:17:48;;;;;;;;;;;14.10;82.70;;;;;;4989113;28;19909;-91
2023/07/06 03:20:15;;;;;;;;;;;14.10;82.40;;;;;;4987766;28;19910;-91
2023/07/06 03:22:48;;;;;;;;;;;14.10;82.70;;;;;;4978897;28;19925;-91
2023/07/06 03:25:24;;;;;;;;;;;14.10;82.40;;;;;;4975226;28;19914;-91
2023/07/06 03:27:50;;;;;;;;;;;14.10;82.60;;;;;;4967776;28;19915;-91
2023/07/06 03:30:20;;;;;;;;;;;14.10;82.70;;;;;;4974773;28;19910;-91
2023/07/06 03:32:46;;;;;;;;;;;14.10;82.50;;;;;;4975946;28;20390;-91
2023/07/06 03:35:12;;;;;;;;;;;14.10;82.60;;;;;;4969847;28;19910;-91
2023/07/06 03:37:38;;;;;;;;;;;14.10;82.90;;;;;;4965406;28;20010;-91
2023/07/06 03:40:05;;;;;;;;;;;14.10;82.50;;;;;;4976574;28;20004;-91
2023/07/06 03:42:31;;;;;;;;;;;14.20;82.50;;;;;;4981969;28;19947;-91
2023/07/06 03:44:57;;;;;;;;;;;14.20;82.30;;;;;;4975028;28;19914;-91
2023/07/06 03:47:27;;;;;;;;;;;14.10;82.60;;;;;;4987398;28;19917;-91
2023/07/06 03:49:53;;;;;;;;;;;14.10;82.80;;;;;;4975923;28;19925;-91
2023/07/06 03:52:18;;;;;;;;;;;14.10;83.20;;;;;;4985263;28;19959;-91
2023/07/06 03:54:47;;;;;;;;;;;14.00;83.00;;;;;;4966538;28;20349;-91
2023/07/06 03:57:12;;;;;;;;;;;14.00;83.00;;;;;;4986885;28;19910;-91
2023/07/06 03:59:38;;;;;;;;;;;14.00;83.20;;;;;;4971327;28;19911;-91
2023/07/06 04:02:05;;;;;;;;;;;14.10;83.20;;;;;;4986047;28;19917;-91
2023/07/06 04:04:31;;;;;;;;;;;14.00;83.20;;;;;;4983298;28;19914;-90
2023/07/06 04:06:57;;;;;;;;;;;14.10;82.90;;;;;;4988014;28;20012;-91
2023/07/06 04:09:25;;;;;;;;;;;14.10;83.20;;;;;;4986943;28;20387;-90
2023/07/06 04:11:52;;;;;;;;;;;14.00;83.20;;;;;;4982246;28;19918;-91
2023/07/06 04:14:21;;;;;;;;;;;14.00;83.30;;;;;;4974395;28;19914;-90
2023/07/06 04:16:54;;;;;;;;;;;14.10;83.50;;;;;;4980401;28;20386;-91
2023/07/06 04:19:19;;;;;;;;;;;14.10;83.20;;;;;;4967726;28;19922;-90
2023/07/06 04:21:45;;;;;;;;;;;14.10;83.20;;;;;;4974973;28;19922;-90
2023/07/06 04:24:11;;;;;;;;;;;14.10;82.90;;;;;;4977717;28;19914;-91
2023/07/06 04:26:36;;;;;;;;;;;14.00;82.90;;;;;;4964380;28;19921;-91
2023/07/06 04:29:02;;;;;;;;;;;14.10;83.00;;;;;;4973566;28;20324;-89
2023/07/06 04:31:27;;;;;;;;;;;14.10;82.60;;;;;;4987583;28;19909;-90
2023/07/06 04:33:54;;;;;;;;;;;14.10;82.40;;;;;;4988068;28;19910;-91
2023/07/06 04:36:19;;;;;;;;;;;14.10;82.20;;;;;;4980921;28;20265;-90
2023/07/06 04:38:45;;;;;;;;;;;14.10;82.10;;;;;;4977273;28;19917;-91
2023/07/06 04:41:12;;;;;;;;;;;14.10;82.30;;;;;;4970288;28;19918;-91
2023/07/06 04:43:37;;;;;;;;;;;14.10;82.00;;;;;;4964199;28;20273;-90
2023/07/06 04:46:03;;;;;;;;;;;14.10;82.20;;;;;;4986899;28;19963;-90
2023/07/06 04:48:29;;;;;;;;;;;14.10;82.10;;;;;;4990748;28;19914;-90
2023/07/06 04:50:54;;;;;;;;;;;14.20;82.00;;;;;;4983635;28;20443;-90
2023/07/06 04:53:21;;;;;;;;;;;14.20;82.00;;;;;;4988650;28;19957;-90
2023/07/06 04:55:47;;;;;;;;;;;14.40;81.40;;;;;;4977485;28;20448;-90
2023/07/06 04:58:12;;;;;;;;;;;14.30;81.00;;;;;;4972918;28;20412;-91
2023/07/06 05:00:39;;;;;;;;;;;14.40;81.20;;;;;;4979563;28;19950;-90
2023/07/06 05:03:08;;;;;;;;;;;14.30;81.00;;;;;;4988617;28;19918;-90
2023/07/06 05:05:45;;;;;;;;;;;14.50;80.90;;;;;;4989881;28;19959;-91
2023/07/06 05:08:15;;;;;;;;;;;14.50;80.70;;;;;;4989963;28;20291;-91
2023/07/06 05:10:41;;;;;;;;;;;14.50;80.00;;;;;;4972870;28;20291;-91
2023/07/06 05:13:07;;;;;;;;;;;14.50;80.00;;;;;;4971077;28;19918;-91
2023/07/06 05:15:32;;;;;;;;;;;14.50;80.00;;;;;;4981549;28;19914;-91
2023/07/06 05:18:00;;;;;;;;;;;14.60;79.80;;;;;;4989804;28;19955;-91
2023/07/06 05:20:26;;;;;;;;;;;14.60;79.70;;;;;;4972979;28;19910;-91
2023/07/06 05:22:52;;;;;;;;;;;14.80;79.30;;;;;;4979087;28;20276;-91
2023/07/06 05:25:19;;;;;;;;;;;14.90;79.00;;;;;;4966144;28;19917;-90
2023/07/06 05:27:45;;;;;;;;;;;15.00;78.50;;;;;;4971739;28;20394;-90
2023/07/06 05:30:10;;;;;;;;;;;15.00;78.20;;;;;;4970126;28;19914;-91
2023/07/06 05:32:36;;;;;;;;;;;15.00;78.10;;;;;;4970941;28;19910;-90
2023/07/06 05:35:28;;;;;;;;;;;15.20;77.60;;;;;;4971534;28;19910;-89
2023/07/06 05:37:54;;;;;;;;;;;15.10;77.50;;;;;;4977610;28;19914;-91
2023/07/06 05:40:20;;;;;;;;;;;15.20;77.70;;;;;;4968631;28;20444;-90
2023/07/06 05:42:45;;;;;;;;;;;15.20;77.10;;;;;;4971988;28;20883;-91
2023/07/06 05:45:11;;;;;;;;;;;15.30;76.90;;;;;;4988850;28;20001;-90
2023/07/06 05:47:36;;;;;;;;;;;15.30;76.80;;;;;;4986993;28;19956;-90
2023/07/06 05:50:02;;;;;;;;;;;15.50;76.60;;;;;;4972346;28;19918;-90
2023/07/06 05:52:27;;;;;;;;;;;15.60;76.00;;;;;;4969682;28;19945;-91
2023/07/06 05:54:53;;;;;;;;;;;15.60;76.40;;;;;;4977455;28;19917;-90
2023/07/06 05:57:19;;;;;;;;;;;15.60;76.10;;;;;;4976703;28;19914;-91
2023/07/06 05:59:46;;;;;;;;;;;15.60;76.20;;;;;;4971184;28;20297;-90
2023/07/06 06:02:15;;;;;;;;;;;15.60;75.60;;;;;;4968917;28;19979;-91
2023/07/06 06:04:40;;;;;;;;;;;15.70;75.90;;;;;;4960159;28;19915;-89
2023/07/06 06:07:06;;;;;;;;;;;15.70;75.10;;;;;;5008259;22;19941;-83
2023/07/06 06:09:32;;;;;;;;;;;15.70;75.40;;;;;;5011158;28;19917;-83
2023/07/06 06:11:58;;;;;;;;;;;15.70;75.70;;;;;;5012381;28;19974;-84
2023/07/06 06:14:24;;;;;;;;;;;15.70;75.40;;;;;;5009235;28;19914;-84
2023/07/06 06:16:50;;;;;;;;;;;15.70;76.00;;;;;;5004806;28;20013;-81
2023/07/06 06:19:16;;;;;;;;;;;15.80;75.90;;;;;;4998671;28;19957;-84
2023/07/06 06:21:41;;;;;;;;;;;15.90;75.40;;;;;;4992736;28;19910;-84
2023/07/06 06:24:08;;;;;;;;;;;16.00;75.60;;;;;;4990387;28;19914;-84
2023/07/06 06:26:34;;;;;;;;;;;16.00;75.30;;;;;;4988734;28;19921;-83
2023/07/06 06:28:59;;;;;;;;;;;16.00;75.20;;;;;;4992010;28;20008;-84
2023/07/06 06:31:25;;;;;;;;;;;16.00;75.00;;;;;;4990224;28;19910;-82
2023/07/06 06:33:50;;;;;;;;;;;16.00;75.20;;;;;;4991651;28;20318;-81
2023/07/06 06:36:17;;;;;;;;;;;16.00;75.20;;;;;;4985922;28;19910;-83
2023/07/06 06:38:42;;;;;;;;;;;16.20;75.20;;;;;;4990292;28;20445;-82
2023/07/06 06:41:10;;;;;;;;;;;16.30;74.30;;;;;;4989649;28;19913;-82
2023/07/06 06:43:39;;;;;;;;;;;16.30;74.60;;;;;;4989593;28;20294;-83
2023/07/06 06:46:05;;;;;;;;;;;16.30;74.30;;;;;;4989046;28;19930;-83
2023/07/06 06:48:32;;;;;;;;;;;16.30;74.40;;;;;;4988098;28;19969;-82
2023/07/06 06:50:58;;;;;;;;;;;16.40;74.20;;;;;;4989386;28;20376;-82
2023/07/06 06:53:24;;;;;;;;;;;16.50;74.30;;;;;;4989203;28;19922;-82
2023/07/06 06:55:49;;;;;;;;;;;16.50;74.60;;;;;;4987379;28;20001;-82
2023/07/06 06:58:15;;;;;;;;;;;16.50;74.40;;;;;;4988349;28;19918;-82
2023/07/06 07:00:41;;;;;;;;;;;16.50;74.80;;;;;;4985479;28;20008;-82
2023/07/06 07:03:10;;;;;;;;;;;16.60;74.40;;;;;;4981938;28;19914;-82
2023/07/06 07:05:35;;;;;;;;;;;16.70;74.20;;;;;;4989170;28;20329;-83
2023/07/06 07:08:01;;;;;;;;;;;16.70;73.80;;;;;;4987451;28;19918;-81
2023/07/06 07:10:26;;;;;;;;;;;16.70;73.60;;;;;;4988869;28;19910;-81
2023/07/06 07:12:53;;;;;;;;;;;16.70;73.40;;;;;;4989851;28;19917;-82
2023/07/06 07:15:19;;;;;;;;;;;16.70;73.70;;;;;;4988559;28;19953;-82
2023/07/06 07:17:45;;;;;;;;;;;16.80;74.20;;;;;;4988925;28;20051;-82
2023/07/06 07:20:10;;;;;;;;;;;16.80;73.50;;;;;;4986459;28;20012;-81
2023/07/06 07:22:38;;;;;;;;;;;16.70;73.50;;;;;;4985856;28;20343;-83
2023/07/06 07:25:04;;;;;;;;;;;16.80;73.20;;;;;;4982591;28;19914;-82
2023/07/06 07:27:29;;;;;;;;;;;16.90;73.20;;;;;;4981764;28;19921;-83
2023/07/06 07:29:55;;;;;;;;;;;16.90;72.80;;;;;;4989102;28;19918;-82
2023/07/06 07:32:21;;;;;;;;;;;17.00;72.60;;;;;;4989736;28;19920;-80
2023/07/06 07:34:50;;;;;;;;;;;17.10;71.80;;;;;;4998909;28;19980;-83
2023/07/06 07:37:19;;;;;;;;;;;17.20;71.20;;;;;;4996814;28;19922;-81
2023/07/06 07:39:48;;;;;;;;;;;17.20;71.00;;;;;;5002730;28;20017;-83
2023/07/06 07:42:14;;;;;;;;;;;17.30;71.60;;;;;;4992051;28;20347;-81
2023/07/06 07:44:44;;;;;;;;;;;17.40;70.20;;;;;;4987714;28;19945;-81
2023/07/06 07:47:10;;;;;;;;;;;17.40;70.60;;;;;;4988639;28;19910;-81
2023/07/06 07:49:37;;;;;;;;;;;17.60;70.70;;;;;;4979359;28;20008;-81
2023/07/06 07:52:03;;;;;;;;;;;17.60;70.10;;;;;;5017163;28;20284;-82
2023/07/06 07:54:29;;;;;;;;;;;17.70;69.60;;;;;;4980038;28;19909;-81
2023/07/06 07:56:56;;;;;;;;;;;17.80;69.50;;;;;;4985500;28;19914;-82
2023/07/06 07:59:23;;;;;;;;;;;17.80;69.50;;;;;;4980784;28;19937;-82
2023/07/06 08:01:50;;;;;;;;;;;18.00;69.30;;;;;;4987082;28;20428;-82
2023/07/06 08:04:16;;;;;;;;;;;18.00;68.50;;;;;;4989875;28;19975;-82
2023/07/06 08:06:42;;;;;;;;;;;18.10;69.50;;;;;;4988410;28;20262;-82
2023/07/06 08:09:08;;;;;;;;;;;18.20;68.40;;;;;;4987360;28;20410;-83
2023/07/06 08:11:36;;;;;;;;;;;18.10;67.90;;;;;;4988335;28;19914;-82
2023/07/06 08:14:04;;;;;;;;;;;18.30;67.60;;;;;;4991776;28;20426;-83
2023/07/06 08:16:32;;;;;;;;;;;18.30;65.50;;;;;;4997249;28;19929;-82
2023/07/06 08:18:57;;;;;;;;;;;18.30;66.80;;;;;;4989111;28;20005;-83
2023/07/06 08:21:23;;;;;;;;;;;18.30;67.10;;;;;;4987759;28;20025;-81
2023/07/06 08:23:49;;;;;;;;;;;18.40;66.00;;;;;;4986465;28;20386;-82
2023/07/06 08:26:15;;;;;;;;;;;18.40;66.20;;;;;;4988988;28;20340;-81
2023/07/06 08:28:41;;;;;;;;;;;18.50;66.70;;;;;;4986262;28;19926;-82
2023/07/06 08:31:14;;;;;;;;;;;18.50;66.20;;;;;;4980436;28;20357;-80
2023/07/06 08:33:39;;;;;;;;;;;18.60;66.00;;;;;;4997195;28;20420;-81
2023/07/06 08:36:07;;;;;;;;;;;18.70;64.80;;;;;;4987501;28;19914;-80
2023/07/06 08:38:33;;;;;;;;;;;18.80;65.50;;;;;;4987880;28;19913;-82
2023/07/06 08:41:03;;;;;;;;;;;18.90;65.30;;;;;;4982575;28;19914;-82
2023/07/06 08:43:30;;;;;;;;;;;18.80;64.30;;;;;;4987610;28;19914;-81
2023/07/06 08:46:00;;;;;;;;;;;18.80;63.40;;;;;;4982409;28;19953;-82
2023/07/06 08:48:27;;;;;;;;;;;18.70;63.60;;;;;;4987526;28;20029;-82
2023/07/06 08:50:54;;;;;;;;;;;18.60;65.40;;;;;;4987010;28;20474;-83
2023/07/06 08:53:21;;;;;;;;;;;18.70;65.30;;;;;;4986794;28;19917;-81
2023/07/06 08:55:49;;;;;;;;;;;18.80;64.90;;;;;;4987735;28;19922;-82
2023/07/06 08:58:22;;;;;;;;;;;18.80;64.80;;;;;;4983113;28;19921;-82
2023/07/06 09:00:48;;;;;;;;;;;19.00;63.70;;;;;;4986420;28;19957;-83
2023/07/06 09:03:14;;;;;;;;;;;19.00;64.00;;;;;;4989426;28;20279;-82
2023/07/06 09:05:43;;;;;;;;;;;19.10;63.10;;;;;;4992367;28;19999;-82
2023/07/06 09:08:13;;;;;;;;;;;19.20;62.10;;;;;;5003767;28;19917;-83
2023/07/06 09:10:38;;;;;;;;;;;19.40;62.20;;;;;;4997759;28;19914;-83
2023/07/06 09:13:13;;;;;;;;;;;19.40;61.80;;;;;;5000182;28;19950;-83
2023/07/06 09:15:39;;;;;;;;;;;19.50;60.90;;;;;;4988376;28;20000;-83
2023/07/06 09:18:04;;;;;;;;;;;19.50;60.90;;;;;;5023250;28;19965;-82
2023/07/06 09:20:31;;;;;;;;;;;19.60;61.50;;;;;;4991784;28;19952;-82
2023/07/06 09:22:57;;;;;;;;;;;19.70;59.80;;;;;;4984092;28;20399;-81
2023/07/06 09:25:37;;;;;;;;;;;19.70;60.80;;;;;;4989090;28;20029;-81
2023/07/06 09:28:07;;;;;;;;;;;19.60;59.10;;;;;;4987659;28;19916;-83
2023/07/06 09:30:36;;;;;;;;;;;19.70;59.90;;;;;;4991174;28;20013;-83
2023/07/06 09:33:24;;;;;;;;;;;19.70;60.10;;;;;;4990799;28;20302;-82
2023/07/06 09:35:52;;;;;;;;;;;19.70;59.40;;;;;;4989504;28;20432;-82
2023/07/06 09:38:19;;;;;;;;;;;19.70;59.10;;;;;;4988162;28;19914;-82
2023/07/06 09:40:45;;;;;;;;;;;19.80;60.00;;;;;;4987568;28;19918;-82
2023/07/06 09:43:17;;;;;;;;;;;20.10;58.50;;;;;;4988249;28;19975;-82
2023/07/06 09:45:42;;;;;;;;;;;20.10;57.80;;;;;;4999834;28;19910;-83
2023/07/06 09:48:23;;;;;;;;;;;20.10;57.00;;;;;;4989702;28;19928;-82
2023/07/06 09:50:51;;;;;;;;;;;20.00;57.30;;;;;;4988916;28;20292;-82
2023/07/06 09:53:39;;;;;;;;;;;19.90;58.80;;;;;;4988255;28;20275;-83
2023/07/06 09:56:08;;;;;;;;;;;19.90;58.50;;;;;;4979497;28;19925;-81
2023/07/06 09:58:35;;;;;;;;;;;20.00;59.10;;;;;;4989110;28;20388;-83
2023/07/06 10:01:10;;;;;;;;;;;20.10;57.70;;;;;;4986373;28;20272;-82
2023/07/06 10:03:54;;;;;;;;;;;20.20;58.50;;;;;;4983695;28;20356;-83
2023/07/06 10:06:44;;;;;;;;;;;20.30;56.80;;;;;;4984383;28;19914;-83
2023/07/06 10:09:21;;;;;;;;;;;20.30;55.30;;;;;;4976081;28;19918;-83
2023/07/06 10:11:56;;;;;;;;;;;20.50;55.90;;;;;;4990813;28;19913;-83
2023/07/06 10:14:28;;;;;;;;;;;20.50;53.20;;;;;;4982975;28;19985;-82
2023/07/06 10:16:56;;;;;;;;;;;20.60;54.30;;;;;;4985557;28;20060;-82
2023/07/06 10:19:22;;;;;;;;;;;20.60;55.20;;;;;;4988200;28;19917;-82
2023/07/06 10:21:59;;;;;;;;;;;20.40;56.10;;;;;;4987168;28;19914;-82
2023/07/06 10:24:46;;;;;;;;;;;20.50;55.30;;;;;;5022762;28;20320;-82
2023/07/06 10:27:16;;;;;;;;;;;20.50;54.60;;;;;;4987917;28;19989;-83
2023/07/06 10:29:48;;;;;;;;;;;20.60;54.70;;;;;;4985450;28;19987;-82
2023/07/06 10:32:17;;;;;;;;;;;20.80;56.00;;;;;;4985657;28;19910;-82
2023/07/06 10:34:43;;;;;;;;;;;20.90;55.90;;;;;;4983961;28;20025;-81
2023/07/06 10:37:10;;;;;;;;;;;21.10;53.60;;;;;;4987201;28;20369;-83
2023/07/06 10:39:42;;;;;;;;;;;21.30;54.60;;;;;;4998091;28;20053;-82
2023/07/06 10:42:19;;;;;;;;;;;21.50;53.20;;;;;;4998162;28;20371;-84
2023/07/06 10:44:48;;;;;;;;;;;21.60;53.00;;;;;;5002850;28;19933;-81
2023/07/06 10:47:29;;;;;;;;;;;21.60;53.30;;;;;;4991344;28;19918;-82
2023/07/06 10:50:07;;;;;;;;;;;21.60;53.00;;;;;;4989582;28;19922;-83
2023/07/06 10:52:35;;;;;;;;;;;21.60;53.20;;;;;;4992859;28;20382;-84
2023/07/06 10:55:01;;;;;;;;;;;21.60;52.90;;;;;;4988839;28;19910;-83
2023/07/06 10:57:32;;;;;;;;;;;21.60;52.80;;;;;;4991012;28;20378;-83
2023/07/06 11:00:05;;;;;;;;;;;21.60;52.30;;;;;;4992167;28;20378;-81
2023/07/06 11:02:33;;;;;;;;;;;21.90;50.80;;;;;;4987723;28;20393;-83
2023/07/06 11:05:08;;;;;;;;;;;22.20;52.20;;;;;;4989016;28;20004;-82
2023/07/06 11:07:36;;;;;;;;;;;22.20;50.30;;;;;;4992361;28;20336;-83
2023/07/06 11:10:22;;;;;;;;;;;22.10;51.10;;;;;;4989048;28;19918;-84
2023/07/06 11:13:04;;;;;;;;;;;22.20;52.50;;;;;;4987897;28;19929;-83
2023/07/06 11:15:35;;;;;;;;;;;22.20;50.40;;;;;;4982286;28;20267;-83
2023/07/06 11:18:27;;;;;;;;;;;22.20;50.20;;;;;;4984465;28;20359;-83
2023/07/06 11:21:13;;;;;;;;;;;22.30;50.20;;;;;;4980750;28;20453;-82
2023/07/06 11:23:41;;;;;;;;;;;22.20;51.60;;;;;;4986438;28;20544;-83
2023/07/06 11:26:14;;;;;;;;;;;22.10;51.10;;;;;;4988495;28;20296;-82
2023/07/06 11:28:40;;;;;;;;;;;22.00;50.20;;;;;;4985329;28;19921;-82
2023/07/06 11:31:14;;;;;;;;;;;22.00;50.40;;;;;;4985418;28;19918;-83
2023/07/06 11:33:42;;;;;;;;;;;22.10;51.00;;;;;;4987388;28;19914;-83
2023/07/06 11:36:11;;;;;;;;;;;22.20;51.00;;;;;;4984053;28;19924;-83
2023/07/06 11:38:38;;;;;;;;;;;22.30;50.20;;;;;;4986093;28;20228;-83
2023/07/06 11:41:15;;;;;;;;;;;22.40;51.00;;;;;;4987503;28;19979;-81
2023/07/06 11:43:43;;;;;;;;;;;22.40;50.60;;;;;;4990086;28;19953;-83
2023/07/06 11:46:23;;;;;;;;;;;22.20;49.70;;;;;;4991779;28;19910;-84
2023/07/06 11:48:51;;;;;;;;;;;22.20;49.80;;;;;;4990991;28;19957;-84
2023/07/06 11:51:19;;;;;;;;;;;22.50;49.00;;;;;;4999711;28;19917;-82
2023/07/06 11:53:54;;;;;;;;;;;22.50;48.30;;;;;;4990263;28;19945;-83
2023/07/06 11:56:32;;;;;;;;;;;22.60;48.30;;;;;;4989150;28;19914;-83
2023/07/06 11:59:01;;;;;;;;;;;22.40;48.70;;;;;;4989625;28;19914;-82
2023/07/06 12:01:45;;;;;;;;;;;22.00;48.60;;;;;;4990138;28;19914;-83
2023/07/06 12:04:22;;;;;;;;;;;22.00;49.30;;;;;;4990279;28;20374;-82
2023/07/06 12:06:48;;;;;;;;;;;21.80;49.40;;;;;;4990170;28;20306;-83
2023/07/06 12:09:18;;;;;;;;;;;21.70;48.10;;;;;;4988066;28;19922;-83
2023/07/06 12:11:43;;;;;;;;;;;21.80;48.60;;;;;;4991486;28;20419;-84
2023/07/06 12:14:19;;;;;;;;;;;21.70;50.10;;;;;;5001378;28;19909;-82
2023/07/06 12:16:44;;;;;;;;;;;22.20;49.20;;;;;;4996343;28;19918;-82
2023/07/06 12:19:12;;;;;;;;;;;22.10;48.10;;;;;;5004207;28;19959;-83
2023/07/06 12:21:42;;;;;;;;;;;22.10;47.40;;;;;;4984411;28;19914;-82
2023/07/06 12:24:11;;;;;;;;;;;22.20;48.50;;;;;;4997630;28;19945;-82
2023/07/06 12:26:41;;;;;;;;;;;22.30;47.20;;;;;;4993875;28;19968;-82
2023/07/06 12:29:07;;;;;;;;;;;22.60;47.60;;;;;;4992205;28;19924;-83
2023/07/06 12:31:34;;;;;;;;;;;22.90;47.10;;;;;;4993053;28;19914;-84
2023/07/06 12:36:25;;;;;;;;;;;23.20;45.90;;;;;;5084408;22;19925;-82
2023/07/06 12:38:54;;;;;;;;;;;23.30;45.60;;;;;;5074234;28;19947;-82
2023/07/06 12:41:19;;;;;;;;;;;23.30;45.60;;;;;;5074979;28;19909;-81
2023/07/06 12:43:45;;;;;;;;;;;23.10;45.80;;;;;;5077031;28;19993;-82
2023/07/06 12:46:11;;;;;;;;;;;23.00;46.00;;;;;;5074646;28;20003;-83
2023/07/06 12:48:41;;;;;;;;;;;22.90;45.80;;;;;;5075457;28;19929;-82
2023/07/06 12:51:10;;;;;;;;;;;23.00;45.80;;;;;;5055794;28;19963;-82
2023/07/06 12:53:37;;;;;;;;;;;23.00;46.90;;;;;;5054085;28;19923;-82
2023/07/06 12:56:09;;;;;;;;;;;23.10;47.40;;;;;;5053864;28;20000;-82
2023/07/06 12:58:35;;;;;;;;;;;23.20;45.90;;;;;;5054561;28;20003;-83
2023/07/06 13:01:10;;;;;;;;;;;23.10;46.50;;;;;;5055807;28;19995;-82
2023/07/06 13:03:46;;;;;;;;;;;23.10;45.90;;;;;;5071493;28;19908;-82
2023/07/06 13:06:11;;;;;;;;;;;23.00;45.90;;;;;;5053996;28;19990;-81
2023/07/06 13:08:37;;;;;;;;;;;23.00;44.80;;;;;;5053929;28;19925;-82
2023/07/06 13:11:04;;;;;;;;;;;23.10;45.10;;;;;;5053193;28;19917;-82
2023/07/06 13:13:35;;;;;;;;;;;23.30;44.90;;;;;;5065695;28;19936;-84
2023/07/06 13:16:06;;;;;;;;;;;23.50;45.00;;;;;;5052525;28;19913;-81
2023/07/06 13:18:32;;;;;;;;;;;23.20;44.50;;;;;;5065896;28;20037;-82
2023/07/06 13:20:57;;;;;;;;;;;23.00;44.60;;;;;;5055645;28;19958;-82
2023/07/06 13:23:28;;;;;;;;;;;22.90;45.80;;;;;;5053872;28;19994;-82
2023/07/06 13:25:54;;;;;;;;;;;22.70;46.00;;;;;;5064324;28;19913;-83
2023/07/06 13:28:20;;;;;;;;;;;22.60;46.50;;;;;;5057856;28;20349;-82
2023/07/06 13:30:49;;;;;;;;;;;22.50;47.10;;;;;;5054534;28;19927;-82
2023/07/06 13:33:16;;;;;;;;;;;22.70;48.40;;;;;;5052489;28;19924;-82
2023/07/06 13:35:44;;;;;;;;;;;23.00;46.90;;;;;;5048053;28;19924;-81
2023/07/06 13:38:12;;;;;;;;;;;23.20;47.50;;;;;;5067190;28;20327;-82
2023/07/06 13:40:39;;;;;;;;;;;23.20;48.10;;;;;;5054510;28;19943;-82
2023/07/06 13:43:06;;;;;;;;;;;23.10;47.10;;;;;;5053587;28;19912;-82
2023/07/06 13:45:35;;;;;;;;;;;22.90;47.50;;;;;;5049955;28;20445;-82
2023/07/06 13:48:02;;;;;;;;;;;23.00;47.50;;;;;;5052733;28;19913;-81
2023/07/06 13:50:27;;;;;;;;;;;22.80;48.00;;;;;;5054475;28;19912;-82
2023/07/06 13:52:53;;;;;;;;;;;22.70;46.40;;;;;;5076883;28;19916;-81
2023/07/06 13:55:22;;;;;;;;;;;22.60;45.90;;;;;;5071553;28;19913;-82
2023/07/06 13:57:51;;;;;;;;;;;22.70;48.80;;;;;;5052002;28;19909;-81
2023/07/06 14:00:19;;;;;;;;;;;22.80;48.20;;;;;;5051262;28;19953;-81
2023/07/06 14:02:47;;;;;;;;;;;22.70;47.50;;;;;;5067008;28;19916;-82
2023/07/06 14:05:16;;;;;;;;;;;22.80;44.90;;;;;;5051658;28;19913;-82
2023/07/06 14:07:42;;;;;;;;;;;22.80;43.00;;;;;;5050620;28;19913;-82
2023/07/06 14:10:08;;;;;;;;;;;22.80;42.70;;;;;;5049699;28;19970;-82
2023/07/06 14:12:34;;;;;;;;;;;23.00;42.30;;;;;;5051596;28;20318;-82
2023/07/06 14:15:01;;;;;;;;;;;23.00;43.20;;;;;;5049434;28;20392;-82
2023/07/06 14:17:27;;;;;;;;;;;23.30;41.90;;;;;;5048412;28;20392;-82
2023/07/06 14:19:53;;;;;;;;;;;23.40;41.90;;;;;;5049986;28;20003;-82
2023/07/06 14:22:18;;;;;;;;;;;23.30;42.40;;;;;;5052346;28;20055;-81
2023/07/06 14:24:44;;;;;;;;;;;23.20;43.30;;;;;;5045877;28;20223;-82
2023/07/06 14:27:10;;;;;;;;;;;23.30;43.80;;;;;;5050730;28;19909;-82